sensor_id;sensor_type;location;lat;lon;timestamp;P1;durP1;ratioP1;P2;durP2;ratioP2
14358;SDS011;7263;49.418;11.064;2023-03-31T00:00:17;3.70;;;1.60;;
14358;SDS011;7263;49.418;11.064;2023-03-31T00:02:44;5.97;;;1.63;;
14358;SDS011;7263;49.418;11.064;2023-03-31T00:05:11;3.93;;;1.63;;
14358;SDS011;7263;49.418;11.064;2023-03-31T00:07:43;4.10;;;1.60;;
14358;SDS011;7263;49.418;11.064;2023-03-31T00:10:12;4.27;;;1.50;;
14358;SDS011;7263;49.418;11.064;2023-03-31T00:12:43;3.47;;;1.60;;
14358;SDS011;7263;49.418;11.064;2023-03-31T00:15:10;4.40;;;1.53;;
14358;SDS011;7263;49.418;11.064;2023-03-31T00:17:37;7.87;;;1.73;;
14358;SDS011;7263;49.418;11.064;2023-03-31T00:20:04;2.53;;;1.50;;
14358;SDS011;7263;49.418;11.064;2023-03-31T00:22:36;3.10;;;1.40;;
14358;SDS011;7263;49.418;11.064;2023-03-31T00:25:08;2.77;;;1.50;;
14358;SDS011;7263;49.418;11.064;2023-03-31T00:27:35;4.50;;;2.13;;
14358;SDS011;7263;49.418;11.064;2023-03-31T00:30:02;4.17;;;1.80;;
14358;SDS011;7263;49.418;11.064;2023-03-31T00:32:29;3.90;;;1.90;;
14358;SDS011;7263;49.418;11.064;2023-03-31T00:34:57;3.67;;;1.70;;
14358;SDS011;7263;49.418;11.064;2023-03-31T00:37:26;3.63;;;1.60;;
14358;SDS011;7263;49.418;11.064;2023-03-31T00:39:53;1.90;;;1.60;;
14358;SDS011;7263;49.418;11.064;2023-03-31T00:42:21;3.13;;;1.50;;
14358;SDS011;7263;49.418;11.064;2023-03-31T00:47:48;4.40;;;1.90;;
14358;SDS011;7263;49.418;11.064;2023-03-31T00:50:18;4.43;;;2.00;;
14358;SDS011;7263;49.418;11.064;2023-03-31T00:52:47;3.80;;;1.57;;
14358;SDS011;7263;49.418;11.064;2023-03-31T00:55:17;2.67;;;1.40;;
14358;SDS011;7263;49.418;11.064;2023-03-31T00:57:51;6.43;;;2.20;;
14358;SDS011;7263;49.418;11.064;2023-03-31T01:00:19;2.93;;;1.67;;
14358;SDS011;7263;49.418;11.064;2023-03-31T01:02:48;2.50;;;1.67;;
14358;SDS011;7263;49.418;11.064;2023-03-31T01:05:20;4.13;;;2.00;;
14358;SDS011;7263;49.418;11.064;2023-03-31T01:07:50;2.53;;;1.50;;
14358;SDS011;7263;49.418;11.064;2023-03-31T01:10:19;2.47;;;1.47;;
14358;SDS011;7263;49.418;11.064;2023-03-31T01:12:47;3.57;;;1.47;;
14358;SDS011;7263;49.418;11.064;2023-03-31T01:15:18;6.83;;;1.90;;
14358;SDS011;7263;49.418;11.064;2023-03-31T01:17:45;3.87;;;1.90;;
14358;SDS011;7263;49.418;11.064;2023-03-31T01:20:16;2.47;;;1.70;;
14358;SDS011;7263;49.418;11.064;2023-03-31T01:25:53;5.03;;;1.60;;
14358;SDS011;7263;49.418;11.064;2023-03-31T01:28:37;4.50;;;1.70;;
14358;SDS011;7263;49.418;11.064;2023-03-31T01:40:35;2.90;;;1.63;;
14358;SDS011;7263;49.418;11.064;2023-03-31T01:43:17;3.63;;;1.80;;
14358;SDS011;7263;49.418;11.064;2023-03-31T01:45:52;3.10;;;1.73;;
14358;SDS011;7263;49.418;11.064;2023-03-31T01:48:26;5.70;;;2.27;;
14358;SDS011;7263;49.418;11.064;2023-03-31T01:51:06;2.80;;;1.87;;
14358;SDS011;7263;49.418;11.064;2023-03-31T01:53:42;8.87;;;2.60;;
14358;SDS011;7263;49.418;11.064;2023-03-31T01:56:17;4.40;;;2.00;;
14358;SDS011;7263;49.418;11.064;2023-03-31T01:58:48;5.53;;;1.90;;
14358;SDS011;7263;49.418;11.064;2023-03-31T02:01:20;4.00;;;1.80;;
14358;SDS011;7263;49.418;11.064;2023-03-31T02:03:52;3.87;;;1.70;;
14358;SDS011;7263;49.418;11.064;2023-03-31T02:06:22;4.43;;;1.70;;
14358;SDS011;7263;49.418;11.064;2023-03-31T02:08:53;4.47;;;1.70;;
14358;SDS011;7263;49.418;11.064;2023-03-31T02:11:24;5.07;;;1.70;;
14358;SDS011;7263;49.418;11.064;2023-03-31T02:13:55;2.67;;;1.53;;
14358;SDS011;7263;49.418;11.064;2023-03-31T02:16:27;4.73;;;1.83;;
14358;SDS011;7263;49.418;11.064;2023-03-31T02:18:58;5.27;;;2.23;;
14358;SDS011;7263;49.418;11.064;2023-03-31T02:21:30;2.40;;;1.30;;
14358;SDS011;7263;49.418;11.064;2023-03-31T02:23:59;3.53;;;1.50;;
14358;SDS011;7263;49.418;11.064;2023-03-31T02:26:33;3.73;;;1.77;;
14358;SDS011;7263;49.418;11.064;2023-03-31T02:29:03;3.57;;;1.67;;
14358;SDS011;7263;49.418;11.064;2023-03-31T02:31:31;3.30;;;1.60;;
14358;SDS011;7263;49.418;11.064;2023-03-31T02:34:04;3.87;;;1.90;;
14358;SDS011;7263;49.418;11.064;2023-03-31T02:36:32;2.93;;;1.50;;
14358;SDS011;7263;49.418;11.064;2023-03-31T02:39:01;5.87;;;1.80;;
14358;SDS011;7263;49.418;11.064;2023-03-31T02:41:30;6.47;;;2.13;;
14358;SDS011;7263;49.418;11.064;2023-03-31T02:43:59;7.30;;;3.70;;
14358;SDS011;7263;49.418;11.064;2023-03-31T02:46:26;5.93;;;3.73;;
14358;SDS011;7263;49.418;11.064;2023-03-31T02:48:54;5.90;;;2.50;;
14358;SDS011;7263;49.418;11.064;2023-03-31T02:51:29;6.37;;;1.93;;
14358;SDS011;7263;49.418;11.064;2023-03-31T02:54:36;8.33;;;5.03;;
14358;SDS011;7263;49.418;11.064;2023-03-31T02:57:28;5.30;;;2.20;;
14358;SDS011;7263;49.418;11.064;2023-03-31T03:00:20;4.13;;;2.00;;
14358;SDS011;7263;49.418;11.064;2023-03-31T03:02:54;4.23;;;2.83;;
14358;SDS011;7263;49.418;11.064;2023-03-31T03:05:34;8.43;;;2.60;;
14358;SDS011;7263;49.418;11.064;2023-03-31T03:08:13;4.30;;;2.53;;
14358;SDS011;7263;49.418;11.064;2023-03-31T03:10:52;4.73;;;2.50;;
14358;SDS011;7263;49.418;11.064;2023-03-31T03:13:29;3.60;;;1.50;;
14358;SDS011;7263;49.418;11.064;2023-03-31T03:16:02;3.50;;;1.90;;
14358;SDS011;7263;49.418;11.064;2023-03-31T03:18:30;4.47;;;2.30;;
14358;SDS011;7263;49.418;11.064;2023-03-31T03:20:57;4.87;;;2.53;;
14358;SDS011;7263;49.418;11.064;2023-03-31T03:23:24;4.23;;;2.10;;
14358;SDS011;7263;49.418;11.064;2023-03-31T03:25:51;6.53;;;3.10;;
14358;SDS011;7263;49.418;11.064;2023-03-31T03:28:18;3.27;;;1.60;;
14358;SDS011;7263;49.418;11.064;2023-03-31T03:30:46;4.63;;;2.10;;
14358;SDS011;7263;49.418;11.064;2023-03-31T03:33:13;8.23;;;4.50;;
14358;SDS011;7263;49.418;11.064;2023-03-31T03:35:41;4.77;;;2.30;;
14358;SDS011;7263;49.418;11.064;2023-03-31T03:38:08;8.23;;;5.70;;
14358;SDS011;7263;49.418;11.064;2023-03-31T03:40:34;4.60;;;2.67;;
14358;SDS011;7263;49.418;11.064;2023-03-31T03:43:01;7.70;;;3.07;;
14358;SDS011;7263;49.418;11.064;2023-03-31T03:45:28;7.97;;;3.03;;
14358;SDS011;7263;49.418;11.064;2023-03-31T03:47:56;3.23;;;1.73;;
14358;SDS011;7263;49.418;11.064;2023-03-31T03:50:23;5.50;;;2.40;;
14358;SDS011;7263;49.418;11.064;2023-03-31T03:52:50;7.07;;;2.80;;
14358;SDS011;7263;49.418;11.064;2023-03-31T03:55:17;5.57;;;2.00;;
14358;SDS011;7263;49.418;11.064;2023-03-31T03:57:44;3.90;;;1.67;;
14358;SDS011;7263;49.418;11.064;2023-03-31T04:00:11;6.50;;;3.63;;
14358;SDS011;7263;49.418;11.064;2023-03-31T04:02:38;4.97;;;2.30;;
14358;SDS011;7263;49.418;11.064;2023-03-31T04:05:06;7.00;;;2.97;;
14358;SDS011;7263;49.418;11.064;2023-03-31T04:07:34;7.07;;;2.27;;
14358;SDS011;7263;49.418;11.064;2023-03-31T04:10:00;4.93;;;2.50;;
14358;SDS011;7263;49.418;11.064;2023-03-31T04:12:27;5.03;;;2.00;;
14358;SDS011;7263;49.418;11.064;2023-03-31T04:14:54;2.97;;;1.93;;
14358;SDS011;7263;49.418;11.064;2023-03-31T04:17:21;3.67;;;2.37;;
14358;SDS011;7263;49.418;11.064;2023-03-31T04:19:57;4.23;;;2.10;;
14358;SDS011;7263;49.418;11.064;2023-03-31T04:22:27;5.60;;;2.53;;
14358;SDS011;7263;49.418;11.064;2023-03-31T04:24:59;3.90;;;2.20;;
14358;SDS011;7263;49.418;11.064;2023-03-31T04:27:26;4.43;;;2.17;;
14358;SDS011;7263;49.418;11.064;2023-03-31T04:29:54;7.40;;;2.47;;
14358;SDS011;7263;49.418;11.064;2023-03-31T04:32:22;5.83;;;2.53;;
14358;SDS011;7263;49.418;11.064;2023-03-31T04:34:49;3.30;;;2.13;;
14358;SDS011;7263;49.418;11.064;2023-03-31T04:37:15;4.00;;;2.10;;
14358;SDS011;7263;49.418;11.064;2023-03-31T04:39:43;5.47;;;2.43;;
14358;SDS011;7263;49.418;11.064;2023-03-31T04:42:14;4.57;;;2.03;;
14358;SDS011;7263;49.418;11.064;2023-03-31T04:44:41;5.33;;;2.33;;
14358;SDS011;7263;49.418;11.064;2023-03-31T04:47:08;6.60;;;1.97;;
14358;SDS011;7263;49.418;11.064;2023-03-31T04:49:34;4.77;;;1.97;;
14358;SDS011;7263;49.418;11.064;2023-03-31T04:52:01;6.00;;;2.00;;
14358;SDS011;7263;49.418;11.064;2023-03-31T04:54:28;4.73;;;2.13;;
14358;SDS011;7263;49.418;11.064;2023-03-31T04:56:56;6.53;;;2.07;;
14358;SDS011;7263;49.418;11.064;2023-03-31T04:59:23;6.73;;;2.10;;
14358;SDS011;7263;49.418;11.064;2023-03-31T05:01:50;6.07;;;2.80;;
14358;SDS011;7263;49.418;11.064;2023-03-31T05:04:16;5.03;;;2.80;;
14358;SDS011;7263;49.418;11.064;2023-03-31T05:06:43;9.63;;;4.37;;
14358;SDS011;7263;49.418;11.064;2023-03-31T05:09:10;5.13;;;2.53;;
14358;SDS011;7263;49.418;11.064;2023-03-31T05:11:37;5.93;;;2.83;;
14358;SDS011;7263;49.418;11.064;2023-03-31T05:14:05;4.90;;;2.10;;
14358;SDS011;7263;49.418;11.064;2023-03-31T05:16:32;5.90;;;2.37;;
14358;SDS011;7263;49.418;11.064;2023-03-31T05:18:58;4.73;;;2.40;;
14358;SDS011;7263;49.418;11.064;2023-03-31T05:21:25;8.13;;;2.53;;
14358;SDS011;7263;49.418;11.064;2023-03-31T05:23:54;8.17;;;2.03;;
14358;SDS011;7263;49.418;11.064;2023-03-31T05:26:21;5.27;;;2.10;;
14358;SDS011;7263;49.418;11.064;2023-03-31T05:28:49;5.60;;;2.03;;
14358;SDS011;7263;49.418;11.064;2023-03-31T05:31:17;4.63;;;2.10;;
14358;SDS011;7263;49.418;11.064;2023-03-31T05:33:44;4.87;;;2.23;;
14358;SDS011;7263;49.418;11.064;2023-03-31T05:36:12;4.43;;;2.17;;
14358;SDS011;7263;49.418;11.064;2023-03-31T05:38:40;4.47;;;2.60;;
14358;SDS011;7263;49.418;11.064;2023-03-31T05:41:08;5.20;;;2.53;;
14358;SDS011;7263;49.418;11.064;2023-03-31T05:43:36;2.50;;;1.87;;
14358;SDS011;7263;49.418;11.064;2023-03-31T05:46:04;5.07;;;2.40;;
14358;SDS011;7263;49.418;11.064;2023-03-31T05:48:32;3.17;;;2.80;;
14358;SDS011;7263;49.418;11.064;2023-03-31T05:51:01;5.47;;;2.23;;
14358;SDS011;7263;49.418;11.064;2023-03-31T05:53:28;3.27;;;2.10;;
14358;SDS011;7263;49.418;11.064;2023-03-31T05:55:56;5.47;;;2.10;;
14358;SDS011;7263;49.418;11.064;2023-03-31T05:58:24;11.60;;;2.47;;
14358;SDS011;7263;49.418;11.064;2023-03-31T06:00:59;5.10;;;2.00;;
14358;SDS011;7263;49.418;11.064;2023-03-31T06:03:29;4.30;;;1.73;;
14358;SDS011;7263;49.418;11.064;2023-03-31T06:05:57;3.40;;;1.97;;
14358;SDS011;7263;49.418;11.064;2023-03-31T06:08:26;4.33;;;2.13;;
14358;SDS011;7263;49.418;11.064;2023-03-31T06:10:52;4.90;;;2.40;;
14358;SDS011;7263;49.418;11.064;2023-03-31T06:13:19;4.20;;;2.50;;
14358;SDS011;7263;49.418;11.064;2023-03-31T06:15:51;4.27;;;1.97;;
14358;SDS011;7263;49.418;11.064;2023-03-31T06:18:18;5.20;;;2.07;;
14358;SDS011;7263;49.418;11.064;2023-03-31T06:20:45;4.67;;;2.30;;
14358;SDS011;7263;49.418;11.064;2023-03-31T06:23:13;5.17;;;2.00;;
14358;SDS011;7263;49.418;11.064;2023-03-31T06:25:40;4.97;;;2.30;;
14358;SDS011;7263;49.418;11.064;2023-03-31T06:28:07;5.53;;;2.30;;
14358;SDS011;7263;49.418;11.064;2023-03-31T06:30:34;4.67;;;2.13;;
14358;SDS011;7263;49.418;11.064;2023-03-31T06:33:01;6.07;;;2.70;;
14358;SDS011;7263;49.418;11.064;2023-03-31T06:35:28;7.80;;;3.07;;
14358;SDS011;7263;49.418;11.064;2023-03-31T06:37:57;5.37;;;2.27;;
14358;SDS011;7263;49.418;11.064;2023-03-31T06:40:25;6.13;;;2.30;;
14358;SDS011;7263;49.418;11.064;2023-03-31T06:42:52;5.17;;;2.13;;
14358;SDS011;7263;49.418;11.064;2023-03-31T06:45:19;7.27;;;2.60;;
14358;SDS011;7263;49.418;11.064;2023-03-31T06:47:46;5.53;;;2.53;;
14358;SDS011;7263;49.418;11.064;2023-03-31T06:50:13;4.50;;;2.30;;
14358;SDS011;7263;49.418;11.064;2023-03-31T06:52:40;5.83;;;2.77;;
14358;SDS011;7263;49.418;11.064;2023-03-31T06:55:07;5.33;;;2.90;;
14358;SDS011;7263;49.418;11.064;2023-03-31T06:57:38;5.87;;;2.60;;
14358;SDS011;7263;49.418;11.064;2023-03-31T07:00:05;7.07;;;3.00;;
14358;SDS011;7263;49.418;11.064;2023-03-31T07:02:33;8.57;;;3.80;;
14358;SDS011;7263;49.418;11.064;2023-03-31T07:05:00;10.97;;;3.23;;
14358;SDS011;7263;49.418;11.064;2023-03-31T07:07:29;6.17;;;3.20;;
14358;SDS011;7263;49.418;11.064;2023-03-31T07:09:56;12.43;;;4.13;;
14358;SDS011;7263;49.418;11.064;2023-03-31T07:12:23;8.40;;;3.43;;
14358;SDS011;7263;49.418;11.064;2023-03-31T07:14:51;8.73;;;3.93;;
14358;SDS011;7263;49.418;11.064;2023-03-31T07:17:18;6.50;;;3.50;;
14358;SDS011;7263;49.418;11.064;2023-03-31T07:19:45;11.53;;;4.00;;
14358;SDS011;7263;49.418;11.064;2023-03-31T07:22:13;11.37;;;4.13;;
14358;SDS011;7263;49.418;11.064;2023-03-31T07:24:39;9.03;;;4.50;;
14358;SDS011;7263;49.418;11.064;2023-03-31T07:27:06;7.73;;;4.40;;
14358;SDS011;7263;49.418;11.064;2023-03-31T07:29:33;9.43;;;5.13;;
14358;SDS011;7263;49.418;11.064;2023-03-31T07:32:01;8.73;;;4.40;;
14358;SDS011;7263;49.418;11.064;2023-03-31T07:34:28;8.97;;;5.07;;
14358;SDS011;7263;49.418;11.064;2023-03-31T07:36:55;9.27;;;4.67;;
14358;SDS011;7263;49.418;11.064;2023-03-31T07:39:22;11.03;;;5.00;;
14358;SDS011;7263;49.418;11.064;2023-03-31T07:41:49;10.40;;;5.07;;
14358;SDS011;7263;49.418;11.064;2023-03-31T07:44:15;10.00;;;4.53;;
14358;SDS011;7263;49.418;11.064;2023-03-31T07:46:42;9.00;;;5.20;;
14358;SDS011;7263;49.418;11.064;2023-03-31T07:49:11;8.60;;;4.70;;
14358;SDS011;7263;49.418;11.064;2023-03-31T07:51:40;9.03;;;4.77;;
14358;SDS011;7263;49.418;11.064;2023-03-31T07:54:07;9.87;;;4.50;;
14358;SDS011;7263;49.418;11.064;2023-03-31T07:56:33;12.53;;;5.27;;
14358;SDS011;7263;49.418;11.064;2023-03-31T07:59:00;10.53;;;5.40;;
14358;SDS011;7263;49.418;11.064;2023-03-31T08:01:27;11.63;;;5.33;;
14358;SDS011;7263;49.418;11.064;2023-03-31T08:03:54;9.90;;;4.80;;
14358;SDS011;7263;49.418;11.064;2023-03-31T08:06:23;9.57;;;4.90;;
14358;SDS011;7263;49.418;11.064;2023-03-31T08:08:51;6.37;;;4.77;;
14358;SDS011;7263;49.418;11.064;2023-03-31T08:11:17;14.07;;;6.13;;
14358;SDS011;7263;49.418;11.064;2023-03-31T08:13:45;12.30;;;5.93;;
14358;SDS011;7263;49.418;11.064;2023-03-31T08:16:12;10.57;;;5.83;;
14358;SDS011;7263;49.418;11.064;2023-03-31T08:18:38;8.07;;;5.90;;
14358;SDS011;7263;49.418;11.064;2023-03-31T08:21:05;10.10;;;5.87;;
14358;SDS011;7263;49.418;11.064;2023-03-31T08:23:35;10.17;;;5.60;;
14358;SDS011;7263;49.418;11.064;2023-03-31T08:26:09;10.80;;;6.37;;
14358;SDS011;7263;49.418;11.064;2023-03-31T08:28:37;12.77;;;6.40;;
14358;SDS011;7263;49.418;11.064;2023-03-31T08:31:04;11.70;;;6.67;;
14358;SDS011;7263;49.418;11.064;2023-03-31T08:33:32;9.17;;;6.63;;
14358;SDS011;7263;49.418;11.064;2023-03-31T08:36:02;11.50;;;6.30;;
14358;SDS011;7263;49.418;11.064;2023-03-31T08:38:32;10.77;;;6.47;;
14358;SDS011;7263;49.418;11.064;2023-03-31T08:41:03;9.63;;;5.90;;
14358;SDS011;7263;49.418;11.064;2023-03-31T08:43:33;12.40;;;6.13;;
14358;SDS011;7263;49.418;11.064;2023-03-31T08:46:05;9.93;;;5.40;;
14358;SDS011;7263;49.418;11.064;2023-03-31T08:48:37;9.23;;;5.97;;
14358;SDS011;7263;49.418;11.064;2023-03-31T08:51:10;8.53;;;5.57;;
14358;SDS011;7263;49.418;11.064;2023-03-31T08:53:44;10.30;;;5.57;;
14358;SDS011;7263;49.418;11.064;2023-03-31T08:56:15;7.20;;;5.43;;
14358;SDS011;7263;49.418;11.064;2023-03-31T08:58:44;6.97;;;5.83;;
14358;SDS011;7263;49.418;11.064;2023-03-31T09:01:16;9.20;;;5.70;;
14358;SDS011;7263;49.418;11.064;2023-03-31T09:03:52;8.17;;;5.77;;
14358;SDS011;7263;49.418;11.064;2023-03-31T09:06:33;10.37;;;5.77;;
14358;SDS011;7263;49.418;11.064;2023-03-31T09:09:05;8.60;;;5.40;;
14358;SDS011;7263;49.418;11.064;2023-03-31T09:11:37;8.87;;;5.03;;
14358;SDS011;7263;49.418;11.064;2023-03-31T09:14:14;7.83;;;4.67;;
14358;SDS011;7263;49.418;11.064;2023-03-31T09:16:47;6.57;;;4.40;;
14358;SDS011;7263;49.418;11.064;2023-03-31T09:19:30;6.80;;;4.20;;
14358;SDS011;7263;49.418;11.064;2023-03-31T09:22:01;7.07;;;4.70;;
14358;SDS011;7263;49.418;11.064;2023-03-31T09:24:33;8.60;;;4.93;;
14358;SDS011;7263;49.418;11.064;2023-03-31T09:27:06;9.07;;;4.77;;
14358;SDS011;7263;49.418;11.064;2023-03-31T09:29:39;7.23;;;4.80;;
14358;SDS011;7263;49.418;11.064;2023-03-31T09:32:13;6.00;;;4.73;;
14358;SDS011;7263;49.418;11.064;2023-03-31T09:34:41;5.87;;;4.60;;
14358;SDS011;7263;49.418;11.064;2023-03-31T09:37:09;9.23;;;3.30;;
14358;SDS011;7263;49.418;11.064;2023-03-31T09:39:38;5.53;;;3.10;;
14358;SDS011;7263;49.418;11.064;2023-03-31T09:42:05;3.40;;;2.93;;
14358;SDS011;7263;49.418;11.064;2023-03-31T09:44:35;4.70;;;2.80;;
14358;SDS011;7263;49.418;11.064;2023-03-31T09:47:04;3.30;;;2.53;;
14358;SDS011;7263;49.418;11.064;2023-03-31T09:49:35;2.87;;;2.23;;
14358;SDS011;7263;49.418;11.064;2023-03-31T09:52:04;3.07;;;2.10;;
14358;SDS011;7263;49.418;11.064;2023-03-31T09:54:39;2.43;;;1.93;;
14358;SDS011;7263;49.418;11.064;2023-03-31T09:57:12;2.00;;;1.63;;
14358;SDS011;7263;49.418;11.064;2023-03-31T09:59:40;3.27;;;1.80;;
14358;SDS011;7263;49.418;11.064;2023-03-31T10:05:00;3.70;;;1.87;;
14358;SDS011;7263;49.418;11.064;2023-03-31T10:07:28;2.40;;;1.70;;
14358;SDS011;7263;49.418;11.064;2023-03-31T10:09:57;1.88;;;1.50;;
14358;SDS011;7263;49.418;11.064;2023-03-31T10:12:24;3.10;;;1.63;;
14358;SDS011;7263;49.418;11.064;2023-03-31T10:15:01;4.97;;;1.90;;
14358;SDS011;7263;49.418;11.064;2023-03-31T10:17:40;2.75;;;1.73;;
14358;SDS011;7263;49.418;11.064;2023-03-31T10:20:16;6.13;;;1.85;;
14358;SDS011;7263;49.418;11.064;2023-03-31T10:22:46;2.30;;;1.50;;
14358;SDS011;7263;49.418;11.064;2023-03-31T10:25:15;2.80;;;1.55;;
14358;SDS011;7263;49.418;11.064;2023-03-31T10:27:44;3.13;;;1.90;;
14358;SDS011;7263;49.418;11.064;2023-03-31T10:30:16;3.38;;;1.70;;
14358;SDS011;7263;49.418;11.064;2023-03-31T10:32:45;3.70;;;1.38;;
14358;SDS011;7263;49.418;11.064;2023-03-31T10:35:14;4.00;;;1.70;;
14358;SDS011;7263;49.418;11.064;2023-03-31T10:37:49;3.40;;;1.55;;
14358;SDS011;7263;49.418;11.064;2023-03-31T10:40:22;3.70;;;1.50;;
14358;SDS011;7263;49.418;11.064;2023-03-31T10:42:57;2.75;;;1.50;;
14358;SDS011;7263;49.418;11.064;2023-03-31T10:45:27;3.05;;;1.45;;
14358;SDS011;7263;49.418;11.064;2023-03-31T10:47:56;3.08;;;1.73;;
14358;SDS011;7263;49.418;11.064;2023-03-31T10:50:28;3.67;;;1.42;;
14358;SDS011;7263;49.418;11.064;2023-03-31T10:53:00;5.55;;;1.90;;
14358;SDS011;7263;49.418;11.064;2023-03-31T10:55:33;3.58;;;1.73;;
14358;SDS011;7263;49.418;11.064;2023-03-31T10:58:07;5.50;;;1.52;;
14358;SDS011;7263;49.418;11.064;2023-03-31T11:00:49;5.25;;;1.65;;
14358;SDS011;7263;49.418;11.064;2023-03-31T11:03:41;3.95;;;1.48;;
14358;SDS011;7263;49.418;11.064;2023-03-31T11:06:21;3.70;;;1.60;;
14358;SDS011;7263;49.418;11.064;2023-03-31T11:08:57;3.83;;;1.60;;
14358;SDS011;7263;49.418;11.064;2023-03-31T11:11:42;2.70;;;1.70;;
14358;SDS011;7263;49.418;11.064;2023-03-31T11:14:21;3.83;;;1.57;;
14358;SDS011;7263;49.418;11.064;2023-03-31T11:16:57;4.20;;;1.43;;
14358;SDS011;7263;49.418;11.064;2023-03-31T11:19:36;5.37;;;1.67;;
14358;SDS011;7263;49.418;11.064;2023-03-31T11:22:11;3.00;;;1.30;;
14358;SDS011;7263;49.418;11.064;2023-03-31T11:24:56;3.67;;;1.53;;
14358;SDS011;7263;49.418;11.064;2023-03-31T11:27:38;4.13;;;1.20;;
14358;SDS011;7263;49.418;11.064;2023-03-31T11:30:23;3.63;;;1.37;;
14358;SDS011;7263;49.418;11.064;2023-03-31T11:32:58;4.00;;;1.57;;
14358;SDS011;7263;49.418;11.064;2023-03-31T11:35:39;4.10;;;1.60;;
14358;SDS011;7263;49.418;11.064;2023-03-31T11:38:28;1.83;;;1.20;;
14358;SDS011;7263;49.418;11.064;2023-03-31T11:41:02;3.80;;;1.40;;
14358;SDS011;7263;49.418;11.064;2023-03-31T11:43:35;2.72;;;1.38;;
14358;SDS011;7263;49.418;11.064;2023-03-31T11:46:09;3.95;;;1.40;;
14358;SDS011;7263;49.418;11.064;2023-03-31T11:48:40;4.35;;;1.33;;
14358;SDS011;7263;49.418;11.064;2023-03-31T11:51:12;3.50;;;1.38;;
14358;SDS011;7263;49.418;11.064;2023-03-31T11:53:43;3.67;;;1.35;;
14358;SDS011;7263;49.418;11.064;2023-03-31T11:56:11;4.93;;;1.70;;
14358;SDS011;7263;49.418;11.064;2023-03-31T11:58:44;5.25;;;1.92;;
14358;SDS011;7263;49.418;11.064;2023-03-31T12:01:16;3.77;;;1.00;;
14358;SDS011;7263;49.418;11.064;2023-03-31T12:03:51;2.03;;;1.10;;
14358;SDS011;7263;49.418;11.064;2023-03-31T12:06:23;3.00;;;1.40;;
14358;SDS011;7263;49.418;11.064;2023-03-31T12:09:00;3.60;;;1.30;;
14358;SDS011;7263;49.418;11.064;2023-03-31T12:11:33;4.37;;;1.30;;
14358;SDS011;7263;49.418;11.064;2023-03-31T12:14:10;4.70;;;1.40;;
14358;SDS011;7263;49.418;11.064;2023-03-31T12:16:49;3.57;;;0.90;;
14358;SDS011;7263;49.418;11.064;2023-03-31T12:19:19;4.90;;;1.03;;
14358;SDS011;7263;49.418;11.064;2023-03-31T12:21:53;2.93;;;1.20;;
14358;SDS011;7263;49.418;11.064;2023-03-31T12:24:23;3.03;;;1.13;;
14358;SDS011;7263;49.418;11.064;2023-03-31T12:26:52;1.97;;;1.20;;
14358;SDS011;7263;49.418;11.064;2023-03-31T12:29:30;3.00;;;1.20;;
14358;SDS011;7263;49.418;11.064;2023-03-31T12:32:00;2.90;;;1.40;;
14358;SDS011;7263;49.418;11.064;2023-03-31T12:34:32;2.90;;;1.30;;
14358;SDS011;7263;49.418;11.064;2023-03-31T12:37:23;3.53;;;1.87;;
14358;SDS011;7263;49.418;11.064;2023-03-31T12:40:19;2.10;;;1.60;;
14358;SDS011;7263;49.418;11.064;2023-03-31T12:45:51;1.83;;;1.20;;
14358;SDS011;7263;49.418;11.064;2023-03-31T12:48:37;1.90;;;1.20;;
14358;SDS011;7263;49.418;11.064;2023-03-31T12:51:21;2.57;;;1.30;;
14358;SDS011;7263;49.418;11.064;2023-03-31T12:54:08;4.23;;;2.10;;
14358;SDS011;7263;49.418;11.064;2023-03-31T12:57:11;1.80;;;1.20;;
14358;SDS011;7263;49.418;11.064;2023-03-31T12:59:41;1.10;;;0.90;;
14358;SDS011;7263;49.418;11.064;2023-03-31T13:04:58;3.23;;;1.30;;
14358;SDS011;7263;49.418;11.064;2023-03-31T13:07:34;1.87;;;1.10;;
14358;SDS011;7263;49.418;11.064;2023-03-31T13:10:25;3.30;;;1.03;;
14358;SDS011;7263;49.418;11.064;2023-03-31T13:12:59;5.00;;;0.83;;
14358;SDS011;7263;49.418;11.064;2023-03-31T13:15:28;3.00;;;0.83;;
14358;SDS011;7263;49.418;11.064;2023-03-31T13:17:57;3.07;;;0.83;;
14358;SDS011;7263;49.418;11.064;2023-03-31T13:20:29;3.70;;;0.90;;
14358;SDS011;7263;49.418;11.064;2023-03-31T13:23:01;2.87;;;1.03;;
14358;SDS011;7263;49.418;11.064;2023-03-31T13:25:38;3.73;;;1.00;;
14358;SDS011;7263;49.418;11.064;2023-03-31T13:30:59;3.80;;;1.10;;
14358;SDS011;7263;49.418;11.064;2023-03-31T13:33:32;1.63;;;0.97;;
14358;SDS011;7263;49.418;11.064;2023-03-31T13:36:23;3.07;;;0.90;;
14358;SDS011;7263;49.418;11.064;2023-03-31T13:39:19;6.20;;;1.53;;
14358;SDS011;7263;49.418;11.064;2023-03-31T13:42:01;2.03;;;0.80;;
14358;SDS011;7263;49.418;11.064;2023-03-31T13:47:48;1.23;;;0.70;;
14358;SDS011;7263;49.418;11.064;2023-03-31T13:53:29;2.60;;;1.10;;
14358;SDS011;7263;49.418;11.064;2023-03-31T13:56:17;1.90;;;1.07;;
14358;SDS011;7263;49.418;11.064;2023-03-31T14:02:10;4.17;;;1.00;;
14358;SDS011;7263;49.418;11.064;2023-03-31T14:07:55;4.30;;;1.10;;
14358;SDS011;7263;49.418;11.064;2023-03-31T14:10:26;4.43;;;1.23;;
14358;SDS011;7263;49.418;11.064;2023-03-31T14:13:05;7.80;;;1.57;;
14358;SDS011;7263;49.418;11.064;2023-03-31T14:15:34;3.87;;;1.00;;
14358;SDS011;7263;49.418;11.064;2023-03-31T14:18:03;3.77;;;1.20;;
14358;SDS011;7263;49.418;11.064;2023-03-31T14:20:32;2.70;;;1.20;;
14358;SDS011;7263;49.418;11.064;2023-03-31T14:23:09;3.27;;;1.17;;
14358;SDS011;7263;49.418;11.064;2023-03-31T14:25:49;2.20;;;0.80;;
14358;SDS011;7263;49.418;11.064;2023-03-31T14:28:37;1.43;;;0.80;;
14358;SDS011;7263;49.418;11.064;2023-03-31T14:31:17;2.80;;;0.90;;
14358;SDS011;7263;49.418;11.064;2023-03-31T14:33:52;1.80;;;0.90;;
14358;SDS011;7263;49.418;11.064;2023-03-31T14:36:34;1.63;;;0.80;;
14358;SDS011;7263;49.418;11.064;2023-03-31T14:39:12;2.40;;;0.60;;
14358;SDS011;7263;49.418;11.064;2023-03-31T14:41:42;2.80;;;0.87;;
14358;SDS011;7263;49.418;11.064;2023-03-31T14:44:13;2.43;;;0.90;;
14358;SDS011;7263;49.418;11.064;2023-03-31T14:46:40;1.80;;;0.83;;
14358;SDS011;7263;49.418;11.064;2023-03-31T14:49:14;1.97;;;0.90;;
14358;SDS011;7263;49.418;11.064;2023-03-31T14:51:44;2.13;;;0.70;;
14358;SDS011;7263;49.418;11.064;2023-03-31T14:54:15;2.07;;;1.03;;
14358;SDS011;7263;49.418;11.064;2023-03-31T14:56:43;1.93;;;0.60;;
14358;SDS011;7263;49.418;11.064;2023-03-31T14:59:12;2.43;;;0.87;;
14358;SDS011;7263;49.418;11.064;2023-03-31T15:01:43;2.20;;;0.70;;
14358;SDS011;7263;49.418;11.064;2023-03-31T15:04:13;0.93;;;0.67;;
14358;SDS011;7263;49.418;11.064;2023-03-31T15:06:43;2.57;;;1.07;;
14358;SDS011;7263;49.418;11.064;2023-03-31T15:09:12;2.33;;;0.70;;
14358;SDS011;7263;49.418;11.064;2023-03-31T15:11:44;2.83;;;0.80;;
14358;SDS011;7263;49.418;11.064;2023-03-31T15:14:12;2.03;;;0.80;;
14358;SDS011;7263;49.418;11.064;2023-03-31T15:16:39;2.83;;;1.00;;
14358;SDS011;7263;49.418;11.064;2023-03-31T15:19:11;2.20;;;1.17;;
14358;SDS011;7263;49.418;11.064;2023-03-31T15:21:40;4.77;;;1.10;;
14358;SDS011;7263;49.418;11.064;2023-03-31T15:24:09;4.30;;;1.03;;
14358;SDS011;7263;49.418;11.064;2023-03-31T15:26:39;2.93;;;1.00;;
14358;SDS011;7263;49.418;11.064;2023-03-31T15:29:11;1.27;;;0.60;;
14358;SDS011;7263;49.418;11.064;2023-03-31T15:31:42;1.80;;;0.83;;
14358;SDS011;7263;49.418;11.064;2023-03-31T15:34:18;3.13;;;0.87;;
14358;SDS011;7263;49.418;11.064;2023-03-31T15:36:48;2.70;;;1.33;;
14358;SDS011;7263;49.418;11.064;2023-03-31T15:39:16;4.17;;;1.17;;
14358;SDS011;7263;49.418;11.064;2023-03-31T15:41:45;3.00;;;0.90;;
14358;SDS011;7263;49.418;11.064;2023-03-31T15:44:26;5.50;;;1.57;;
14358;SDS011;7263;49.418;11.064;2023-03-31T15:46:57;2.13;;;1.00;;
14358;SDS011;7263;49.418;11.064;2023-03-31T15:49:26;3.77;;;1.30;;
14358;SDS011;7263;49.418;11.064;2023-03-31T15:51:53;4.73;;;1.10;;